KBRO/BRO METAR and TAF weather

Enter ICAO airport designator
Station Type Date Time Source
KBRO METAR 2021/05/15 22:53 UTC NOAA

KBRO 152253Z 09012KT 10SM CLR 23/19 A2988 RMK AO2 SLP116 T02330194


Station Type Date Time Source
KBRO Decoded METAR 2021/05/15 22:53 UTC NOAA

BROWNSVILLE/SOUTH PADRE IS, TX, United States (KBRO) 25-54N 97-25W 5M
May 15, 2021 - 06:53 PM EDT / 2021.05.15 2253 UTC
Wind: from the E (090 degrees) at 14 MPH (12 KT):0
Visibility: 10 mile(s):0
Sky conditions: clear
Temperature: 73.9 F (23.3 C)
Dew Point: 66.9 F (19.4 C)
Relative Humidity: 78%
Pressure (altimeter): 29.88 in. Hg (1011 hPa)
ob: KBRO 152253Z 09012KT 10SM CLR 23/19 A2988 RMK AO2 SLP116 T02330194
cycle: 23

Station Type Date Time Source
KBRO TAF 2021/05/15 18:33 UTC NOAA

TAF KBRO 151729Z 1518/1618 13012G18KT P6SM VCTS SCT018 BKN040CB
TEMPO 1518/1521 VRB20G30KT 2SM TSRA BKN018CB
FM152100 13013G21KT P6SM VCTS OVC030CB PROB30 1606/1612 4SM TSRA OVC015CB
FM161200 15010KT P6SM VCTS OVC035CB PROB30 1612/1618 4SM TSRA OVC015CB

Example: see airport list